createdAt,value
2019-05-30T00:00:56.491Z,50.40
2019-05-30T00:03:25.793Z,50.30
2019-05-30T00:05:56.211Z,50.50
2019-05-30T00:08:25.662Z,50.30
2019-05-30T00:10:54.777Z,50.30
2019-05-30T00:13:24.029Z,50.20
2019-05-30T00:15:54.502Z,50.20
2019-05-30T00:18:24.169Z,50.10
2019-05-30T00:20:54.596Z,50.30
2019-05-30T00:23:23.914Z,50.20
2019-05-30T00:25:53.433Z,50.20
2019-05-30T00:28:22.720Z,50.20
2019-05-30T00:30:51.734Z,50.00
2019-05-30T00:33:20.929Z,50.10
2019-05-30T00:35:50.117Z,50.10
2019-05-30T00:38:19.191Z,50.00
2019-05-30T00:40:48.621Z,50.10
2019-05-30T00:43:17.595Z,49.70
2019-05-30T00:45:46.777Z,49.80
2019-05-30T00:48:15.929Z,50.00
2019-05-30T00:50:45.149Z,50.00
2019-05-30T00:53:14.474Z,50.00
2019-05-30T00:55:43.691Z,50.00
2019-05-30T00:58:12.915Z,50.30
2019-05-30T01:00:44.206Z,49.90
2019-05-30T01:03:12.925Z,49.90
2019-05-30T01:05:42.410Z,50.00
2019-05-30T01:08:11.584Z,50.00
2019-05-30T01:10:40.812Z,49.70
2019-05-30T01:13:10.017Z,49.60
2019-05-30T01:15:39.546Z,49.80
2019-05-30T01:18:08.755Z,49.60
2019-05-30T01:20:37.924Z,49.70
2019-05-30T01:23:07.546Z,49.80
2019-05-30T01:25:37.377Z,49.70
2019-05-30T01:28:07.727Z,49.80
2019-05-30T01:30:37.163Z,49.80
2019-05-30T01:33:06.360Z,49.70
2019-05-30T01:35:35.564Z,49.70
2019-05-30T01:38:05.862Z,49.70
2019-05-30T01:40:35.235Z,49.50
2019-05-30T01:43:04.304Z,49.70
2019-05-30T01:45:33.468Z,49.80
2019-05-30T01:48:04.553Z,49.60
2019-05-30T01:50:34.021Z,49.80
2019-05-30T01:53:04.548Z,49.70
2019-05-30T01:55:33.871Z,49.80
2019-05-30T01:58:03.218Z,49.50
2019-05-30T02:00:37.814Z,49.50
2019-05-30T02:03:07.190Z,49.60
2019-05-30T02:05:36.337Z,49.40
2019-05-30T02:08:05.697Z,49.50
2019-05-30T02:10:35.487Z,49.70
2019-05-30T02:13:05.577Z,49.70
2019-05-30T02:15:34.974Z,49.40
2019-05-30T02:18:04.136Z,49.50
2019-05-30T02:20:33.389Z,49.40
2019-05-30T02:23:04.021Z,49.50
2019-05-30T02:25:33.462Z,49.20
2019-05-30T02:28:02.634Z,49.40
2019-05-30T02:30:31.878Z,49.20
2019-05-30T02:33:02.804Z,49.60
2019-05-30T02:35:31.924Z,49.90
2019-05-30T02:38:01.014Z,49.40
2019-05-30T02:40:30.184Z,49.10
2019-05-30T02:43:01.034Z,49.20
2019-05-30T02:45:30.108Z,49.20
2019-05-30T02:48:01.126Z,49.20
2019-05-30T02:50:30.427Z,49.40
2019-05-30T02:53:01.167Z,49.20
2019-05-30T02:55:30.500Z,49.50
2019-05-30T02:58:01.212Z,49.20
2019-05-30T03:00:35.405Z,49.20
2019-05-30T03:03:06.568Z,49.40
2019-05-30T03:05:35.495Z,49.60
2019-05-30T03:08:06.522Z,49.40
2019-05-30T03:10:35.425Z,49.40
2019-05-30T03:13:06.314Z,49.50
2019-05-30T03:15:35.376Z,49.10
2019-05-30T03:18:05.329Z,48.90
2019-05-30T03:20:35.334Z,49.10
2019-05-30T03:23:05.783Z,48.50
2019-05-30T03:25:35.301Z,49.20
2019-05-30T03:28:05.322Z,49.10
2019-05-30T03:30:35.258Z,49.00
2019-05-30T03:33:17.126Z,49.00
2019-05-30T03:35:41.845Z,49.00
2019-05-30T03:38:07.920Z,49.20
2019-05-30T03:40:37.237Z,48.90
2019-05-30T03:43:08.716Z,48.90
2019-05-30T03:45:37.519Z,48.80
2019-05-30T03:48:09.154Z,49.00
2019-05-30T03:50:37.858Z,49.00
2019-05-30T03:53:09.881Z,49.00
2019-05-30T03:55:38.269Z,49.20
2019-05-30T03:58:16.453Z,48.90
2019-05-30T04:00:51.426Z,48.80
2019-05-30T04:03:37.519Z,48.70
2019-05-30T04:06:11.533Z,48.70
2019-05-30T04:08:40.308Z,49.00
2019-05-30T04:11:11.975Z,48.80
2019-05-30T04:13:50.797Z,49.10
2019-05-30T04:16:19.993Z,49.00
2019-05-30T04:18:49.094Z,48.80
2019-05-30T04:21:21.212Z,49.00
2019-05-30T04:23:48.924Z,49.00
2019-05-30T04:26:18.481Z,48.70
2019-05-30T04:28:47.658Z,48.80
2019-05-30T04:31:17.680Z,49.00
2019-05-30T04:33:47.658Z,48.70
2019-05-30T04:36:17.166Z,48.80
2019-05-30T04:38:47.724Z,48.60
2019-05-30T04:41:19.143Z,48.50
2019-05-30T04:43:47.722Z,48.60
2019-05-30T04:46:19.120Z,48.60
2019-05-30T04:48:47.740Z,48.60
2019-05-30T04:51:19.609Z,48.70
2019-05-30T04:53:48.169Z,48.80
2019-05-30T04:56:19.169Z,49.00
2019-05-30T04:58:48.177Z,48.80
2019-05-30T05:01:18.214Z,48.70
2019-05-30T05:03:48.183Z,48.70
2019-05-30T05:06:17.872Z,48.70
2019-05-30T05:08:47.137Z,48.80
2019-05-30T05:11:19.309Z,48.80
2019-05-30T05:13:47.143Z,48.80
2019-05-30T05:16:25.998Z,48.80
2019-05-30T05:18:47.130Z,48.80
2019-05-30T05:21:16.901Z,48.80
2019-05-30T05:23:46.149Z,48.80
2019-05-30T05:26:15.449Z,49.50
2019-05-30T05:28:44.884Z,48.80
2019-05-30T05:31:14.460Z,48.80
2019-05-30T05:33:56.302Z,48.90
2019-05-30T05:36:14.855Z,49.00
2019-05-30T05:38:44.239Z,49.00
2019-05-30T05:41:13.410Z,49.00
2019-05-30T05:43:42.632Z,49.00
2019-05-30T05:46:11.844Z,49.00
2019-05-30T05:48:40.995Z,49.00
2019-05-30T05:51:10.197Z,49.00
2019-05-30T05:53:39.779Z,49.10
2019-05-30T05:56:08.970Z,49.10
2019-05-30T05:58:38.162Z,49.10
2019-05-30T06:01:07.378Z,49.20
2019-05-30T06:03:36.949Z,49.10
2019-05-30T06:06:06.120Z,49.20
2019-05-30T06:08:35.284Z,49.30
2019-05-30T06:11:04.500Z,49.40
2019-05-30T06:13:33.689Z,49.20
2019-05-30T06:16:02.857Z,49.50
2019-05-30T06:18:32.060Z,50.40
2019-05-30T06:21:01.101Z,50.50
2019-05-30T06:23:30.334Z,50.30
2019-05-30T06:25:59.594Z,50.50
2019-05-30T06:28:30.626Z,50.50
2019-05-30T06:31:15.858Z,50.70
2019-05-30T06:34:03.934Z,50.90
2019-05-30T06:36:33.100Z,51.00
2019-05-30T06:39:02.347Z,51.10
2019-05-30T06:41:31.536Z,51.20
2019-05-30T06:44:05.020Z,51.30
2019-05-30T06:46:35.700Z,51.00
2019-05-30T06:49:05.608Z,51.10
2019-05-30T06:51:35.220Z,51.20
2019-05-30T06:54:04.456Z,51.40
2019-05-30T06:56:33.688Z,51.30
2019-05-30T06:59:04.551Z,51.20
2019-05-30T07:01:36.858Z,51.10
2019-05-30T07:04:11.319Z,51.20
2019-05-30T07:06:41.067Z,51.30
2019-05-30T07:09:10.656Z,51.20
2019-05-30T07:11:39.854Z,51.10
2019-05-30T07:14:09.316Z,51.10
2019-05-30T07:16:38.545Z,51.00
2019-05-30T07:19:07.717Z,51.20
2019-05-30T07:21:36.942Z,51.00
2019-05-30T07:24:06.217Z,51.20
2019-05-30T07:26:35.333Z,51.10
2019-05-30T07:29:04.543Z,51.00
2019-05-30T07:31:34.386Z,51.20
2019-05-30T07:34:03.681Z,50.60
2019-05-30T07:36:32.862Z,50.50
2019-05-30T07:39:02.070Z,50.50
2019-05-30T07:41:31.251Z,50.30
2019-05-30T07:44:00.455Z,50.30
2019-05-30T07:46:29.626Z,50.20
2019-05-30T07:48:58.822Z,50.60
2019-05-30T07:51:28.470Z,49.60
2019-05-30T07:53:57.782Z,49.40
2019-05-30T07:56:26.958Z,49.70
2019-05-30T07:58:56.129Z,49.60
2019-05-30T08:01:26.333Z,49.20
2019-05-30T08:03:55.556Z,48.90
2019-05-30T08:06:24.780Z,49.00
2019-05-30T08:08:53.991Z,49.60
2019-05-30T08:11:23.228Z,48.80
2019-05-30T08:13:52.403Z,48.60
2019-05-30T08:16:21.612Z,48.10
2019-05-30T08:18:50.766Z,47.90
2019-05-30T08:21:19.864Z,48.30
2019-05-30T08:23:49.041Z,48.50
2019-05-30T08:26:18.492Z,48.70
2019-05-30T08:28:47.998Z,48.40
2019-05-30T08:31:17.249Z,48.10
2019-05-30T08:33:47.554Z,47.90
2019-05-30T08:36:17.023Z,47.90
2019-05-30T08:38:48.274Z,47.80
2019-05-30T08:41:17.053Z,48.30
2019-05-30T08:43:46.228Z,47.90
2019-05-30T08:46:15.333Z,48.10
2019-05-30T08:48:44.506Z,47.20
2019-05-30T08:51:13.705Z,47.60
2019-05-30T08:53:42.816Z,47.40
2019-05-30T08:56:12.183Z,47.60
2019-05-30T08:58:41.834Z,47.70
2019-05-30T09:01:11.164Z,47.70
2019-05-30T09:03:40.298Z,47.30
2019-05-30T09:06:16.751Z,47.20
2019-05-30T09:08:46.718Z,47.10
2019-05-30T09:11:22.489Z,47.30
2019-05-30T09:13:56.794Z,47.50
2019-05-30T09:16:27.731Z,47.80
2019-05-30T09:18:56.950Z,48.50
2019-05-30T09:21:26.181Z,47.30
2019-05-30T09:24:00.305Z,47.30
2019-05-30T09:26:26.228Z,48.50
2019-05-30T09:28:55.352Z,48.20
2019-05-30T09:31:24.532Z,48.30
2019-05-30T09:33:53.882Z,48.40
2019-05-30T09:36:23.203Z,48.30
2019-05-30T09:38:52.396Z,48.50
2019-05-30T09:41:21.553Z,48.70
2019-05-30T09:43:50.766Z,48.70
2019-05-30T09:46:19.862Z,48.80
2019-05-30T09:48:49.053Z,48.70
2019-05-30T09:51:18.243Z,48.70
2019-05-30T09:53:48.292Z,48.70
2019-05-30T09:56:17.793Z,48.50
2019-05-30T09:58:47.749Z,48.50
2019-05-30T10:01:16.945Z,48.50
2019-05-30T10:03:46.573Z,48.20
2019-05-30T10:06:28.448Z,48.30
2019-05-30T10:08:47.876Z,48.80
2019-05-30T10:11:17.562Z,48.80
2019-05-30T10:13:47.959Z,48.80
2019-05-30T10:16:17.704Z,48.60
2019-05-30T10:18:47.371Z,48.60
2019-05-30T10:21:17.812Z,48.10
2019-05-30T10:23:47.573Z,48.10
2019-05-30T10:26:17.382Z,47.90
2019-05-30T10:28:47.753Z,47.60
2019-05-30T10:31:17.269Z,48.20
2019-05-30T10:33:47.550Z,47.90
2019-05-30T10:36:19.975Z,48.50
2019-05-30T10:38:49.072Z,49.00
2019-05-30T10:41:19.123Z,49.00
2019-05-30T10:43:49.093Z,49.80
2019-05-30T10:46:18.297Z,49.60
2019-05-30T10:48:49.091Z,49.80
2019-05-30T10:51:19.002Z,49.70
2019-05-30T10:53:49.013Z,49.80
2019-05-30T10:56:18.949Z,49.80
2019-05-30T10:58:48.339Z,49.80
2019-05-30T11:01:17.749Z,49.80
2019-05-30T11:03:47.567Z,49.80
2019-05-30T11:06:42.348Z,49.80
2019-05-30T11:09:11.568Z,49.90
2019-05-30T11:11:40.744Z,49.80
2019-05-30T11:14:09.921Z,49.70
2019-05-30T11:16:39.030Z,49.50
2019-05-30T11:19:08.287Z,49.50
2019-05-30T11:21:37.581Z,49.50
2019-05-30T11:24:06.780Z,49.60
2019-05-30T11:26:35.890Z,49.50
2019-05-30T11:29:05.201Z,49.70
2019-05-30T11:31:34.383Z,49.60
2019-05-30T11:34:03.544Z,49.50
2019-05-30T11:36:32.784Z,49.70
2019-05-30T11:39:01.970Z,49.80
2019-05-30T11:41:31.160Z,49.70
2019-05-30T11:44:03.954Z,49.70
2019-05-30T11:46:31.178Z,49.50
2019-05-30T11:49:00.318Z,49.60
2019-05-30T11:51:29.597Z,49.70
2019-05-30T11:53:58.773Z,49.20
2019-05-30T11:56:28.266Z,49.60
2019-05-30T11:58:58.091Z,49.70
2019-05-30T12:01:27.380Z,49.70
2019-05-30T12:03:56.598Z,49.70
2019-05-30T12:06:25.820Z,49.50
2019-05-30T12:08:55.056Z,49.60
2019-05-30T12:11:24.585Z,49.50
2019-05-30T12:13:53.686Z,49.50
2019-05-30T12:16:22.877Z,50.40
2019-05-30T12:18:53.852Z,49.90
2019-05-30T12:21:23.129Z,50.00
2019-05-30T12:23:52.299Z,49.80
2019-05-30T12:26:21.641Z,49.80
2019-05-30T12:28:51.947Z,49.40
2019-05-30T12:31:21.501Z,49.20
2019-05-30T12:33:52.153Z,49.20
2019-05-30T12:36:21.572Z,49.00
2019-05-30T12:38:50.816Z,49.20
2019-05-30T12:41:20.065Z,49.30
2019-05-30T12:43:49.153Z,47.30
2019-05-30T12:46:18.359Z,48.20
2019-05-30T12:48:47.533Z,48.90
2019-05-30T12:51:17.272Z,48.70
2019-05-30T12:53:46.533Z,48.50
2019-05-30T12:56:15.729Z,47.00
2019-05-30T12:58:44.824Z,47.00
2019-05-30T13:01:14.128Z,45.60
2019-05-30T13:03:43.361Z,46.30
2019-05-30T13:06:12.972Z,47.00
2019-05-30T13:08:42.070Z,48.10
2019-05-30T13:11:11.158Z,46.70
2019-05-30T13:13:40.329Z,45.80
2019-05-30T13:16:11.957Z,45.70
2019-05-30T13:18:41.149Z,44.20
2019-05-30T13:21:10.353Z,45.30
2019-05-30T13:23:39.587Z,46.10
2019-05-30T13:26:08.813Z,45.90
2019-05-30T13:28:37.930Z,45.20
2019-05-30T13:31:07.195Z,44.40
2019-05-30T13:33:38.533Z,44.20
2019-05-30T13:36:07.313Z,44.50
2019-05-30T13:38:36.434Z,44.80
2019-05-30T13:41:05.664Z,45.70
2019-05-30T13:43:35.076Z,44.80
2019-05-30T13:46:04.535Z,44.60
2019-05-30T13:48:33.755Z,44.20
2019-05-30T13:51:02.950Z,44.10
2019-05-30T13:53:32.302Z,44.10
2019-05-30T13:56:01.506Z,44.30
2019-05-30T13:58:30.659Z,44.00
2019-05-30T14:01:01.020Z,44.00
2019-05-30T14:03:30.988Z,43.10
2019-05-30T14:06:00.213Z,42.70
2019-05-30T14:08:41.172Z,42.70
2019-05-30T14:11:00.552Z,42.30
2019-05-30T14:13:30.244Z,42.30
2019-05-30T14:16:00.774Z,42.40
2019-05-30T14:18:30.341Z,42.20
2019-05-30T14:21:01.674Z,42.30
2019-05-30T14:23:30.400Z,42.10
2019-05-30T14:25:59.524Z,42.30
2019-05-30T14:28:28.627Z,42.30
2019-05-30T14:30:57.844Z,42.70
2019-05-30T14:33:27.024Z,43.90
2019-05-30T14:35:56.237Z,43.80
2019-05-30T14:38:25.406Z,43.20
2019-05-30T14:40:54.662Z,43.80
2019-05-30T14:43:23.851Z,42.70
2019-05-30T14:45:53.052Z,42.70
2019-05-30T14:48:22.208Z,43.20
2019-05-30T14:50:51.384Z,42.60
2019-05-30T14:53:20.527Z,42.80
2019-05-30T14:55:49.737Z,42.50
2019-05-30T14:58:18.869Z,42.70
2019-05-30T15:00:47.936Z,42.90
2019-05-30T15:03:17.609Z,43.30
2019-05-30T15:05:46.950Z,43.60
2019-05-30T15:08:16.895Z,42.70
2019-05-30T15:10:46.087Z,42.40
2019-05-30T15:13:15.775Z,42.20
2019-05-30T15:15:45.036Z,42.20
2019-05-30T15:18:14.250Z,42.30
2019-05-30T15:20:43.478Z,42.10
2019-05-30T15:23:13.722Z,42.10
2019-05-30T15:25:43.569Z,42.10
2019-05-30T15:28:12.746Z,42.30
2019-05-30T15:30:41.908Z,42.70
2019-05-30T15:33:12.549Z,42.40
2019-05-30T15:35:41.977Z,42.70
2019-05-30T15:38:11.083Z,42.50
2019-05-30T15:40:41.441Z,43.00
2019-05-30T15:43:11.375Z,43.10
2019-05-30T15:45:40.567Z,42.90
2019-05-30T15:48:10.319Z,42.40
2019-05-30T15:50:39.585Z,42.90
2019-05-30T15:53:08.949Z,43.20
2019-05-30T15:55:38.107Z,43.60
2019-05-30T15:58:07.264Z,42.90
2019-05-30T16:00:37.162Z,43.10
2019-05-30T16:03:06.448Z,42.80
2019-05-30T16:05:35.543Z,42.90
2019-05-30T16:08:04.729Z,43.10
2019-05-30T16:10:36.624Z,43.70
2019-05-30T16:13:04.716Z,43.80
2019-05-30T16:15:33.942Z,43.10
2019-05-30T16:18:03.672Z,43.80
2019-05-30T16:20:32.868Z,44.20
2019-05-30T16:23:02.092Z,44.30
2019-05-30T16:25:31.308Z,44.40
2019-05-30T16:28:00.535Z,44.20
2019-05-30T16:30:29.788Z,44.40
2019-05-30T16:32:58.930Z,44.60
2019-05-30T16:35:28.706Z,44.40
2019-05-30T16:37:57.801Z,44.60
2019-05-30T16:40:26.897Z,44.40
2019-05-30T16:42:56.065Z,44.10
2019-05-30T16:45:25.405Z,44.60
2019-05-30T16:47:54.912Z,44.90
2019-05-30T16:50:24.430Z,44.40
2019-05-30T16:52:53.567Z,44.70
2019-05-30T16:55:23.431Z,45.00
2019-05-30T16:57:52.812Z,45.10
2019-05-30T17:00:22.036Z,45.30
2019-05-30T17:02:51.093Z,45.30
2019-05-30T17:05:20.315Z,45.50
2019-05-30T17:07:49.391Z,45.60
2019-05-30T17:10:26.683Z,45.70
2019-05-30T17:12:49.716Z,45.90
2019-05-30T17:15:20.006Z,45.90
2019-05-30T17:17:49.376Z,45.90
2019-05-30T17:20:20.545Z,45.90
2019-05-30T17:22:49.990Z,46.00
2019-05-30T17:25:19.138Z,46.10
2019-05-30T17:27:48.264Z,46.10
2019-05-30T17:30:17.530Z,46.20
2019-05-30T17:32:46.685Z,46.20
2019-05-30T17:35:15.877Z,46.10
2019-05-30T17:37:45.060Z,45.80
2019-05-30T17:40:14.238Z,46.00
2019-05-30T17:42:43.780Z,45.90
2019-05-30T17:45:12.997Z,46.10
2019-05-30T17:47:42.208Z,46.00
2019-05-30T17:50:12.922Z,45.90
2019-05-30T17:52:42.429Z,46.70
2019-05-30T17:55:11.612Z,46.20
2019-05-30T17:57:40.805Z,46.10
2019-05-30T18:00:10.334Z,46.30
2019-05-30T18:02:39.811Z,46.30
2019-05-30T18:05:10.146Z,46.50
2019-05-30T18:07:40.803Z,46.70
2019-05-30T18:10:13.778Z,46.60
2019-05-30T18:12:43.051Z,46.70
2019-05-30T18:15:12.264Z,46.70
2019-05-30T18:17:41.390Z,46.80
2019-05-30T18:20:11.832Z,46.80
2019-05-30T18:22:40.977Z,46.90
2019-05-30T18:25:11.437Z,47.10
2019-05-30T18:27:40.861Z,47.10
2019-05-30T18:30:10.030Z,47.10
2019-05-30T18:32:42.276Z,47.30
2019-05-30T18:35:11.739Z,47.30
2019-05-30T18:37:40.982Z,47.60
2019-05-30T18:40:15.331Z,47.80
2019-05-30T18:42:46.621Z,47.70
2019-05-30T18:45:18.882Z,47.80
2019-05-30T18:47:48.442Z,47.80
2019-05-30T18:50:17.998Z,47.80
2019-05-30T18:52:48.793Z,48.10
2019-05-30T18:55:19.846Z,48.10
2019-05-30T18:57:56.209Z,48.50
2019-05-30T19:00:27.638Z,48.50
2019-05-30T19:02:56.891Z,48.20
2019-05-30T19:05:26.587Z,48.60
2019-05-30T19:07:56.175Z,48.50
2019-05-30T19:10:29.987Z,48.80
2019-05-30T19:12:59.345Z,48.90
2019-05-30T19:15:30.108Z,49.20
2019-05-30T19:18:02.097Z,49.10
2019-05-30T19:20:31.849Z,49.00
2019-05-30T19:23:01.107Z,49.10
2019-05-30T19:25:32.421Z,49.50
2019-05-30T19:28:01.446Z,49.70
2019-05-30T19:30:30.685Z,49.90
2019-05-30T19:32:59.860Z,49.80
2019-05-30T19:35:29.079Z,50.00
2019-05-30T19:37:58.213Z,50.20
2019-05-30T19:40:27.506Z,50.30
2019-05-30T19:42:56.710Z,50.40
2019-05-30T19:45:25.880Z,50.30
2019-05-30T19:47:55.309Z,50.40
2019-05-30T19:50:24.473Z,50.40
2019-05-30T19:52:53.661Z,50.40
2019-05-30T19:55:43.878Z,50.50
2019-05-30T19:58:35.543Z,50.60
2019-05-30T20:04:59.060Z,50.60
2019-05-30T20:07:36.711Z,50.50
2019-05-30T20:13:35.021Z,50.40
2019-05-30T20:16:22.175Z,50.50
2019-05-30T20:18:51.356Z,50.30
2019-05-30T20:21:27.801Z,50.40
2019-05-30T20:23:59.278Z,50.70
2019-05-30T20:26:26.113Z,50.60
2019-05-30T20:28:55.229Z,50.60
2019-05-30T20:31:24.534Z,51.10
2019-05-30T20:33:53.734Z,50.60
2019-05-30T20:36:22.871Z,50.60
2019-05-30T20:38:52.081Z,50.90
2019-05-30T20:41:21.349Z,50.90
2019-05-30T20:43:52.587Z,50.90
2019-05-30T20:46:23.505Z,50.90
2019-05-30T20:48:52.932Z,50.80
2019-05-30T20:51:22.432Z,50.90
2019-05-30T20:53:54.617Z,51.00
2019-05-30T20:56:22.435Z,50.80
2019-05-30T20:58:51.627Z,50.80
2019-05-30T21:01:20.809Z,50.80
2019-05-30T21:03:50.029Z,50.80
2019-05-30T21:06:19.228Z,50.60
2019-05-30T21:08:48.405Z,50.60
2019-05-30T21:11:17.625Z,50.50
2019-05-30T21:13:46.843Z,50.50
2019-05-30T21:16:16.936Z,50.60
2019-05-30T21:18:46.662Z,50.60
2019-05-30T21:21:15.905Z,50.50
2019-05-30T21:23:45.099Z,50.60
2019-05-30T21:26:14.886Z,50.60
2019-05-30T21:28:45.350Z,50.60
2019-05-30T21:31:16.218Z,50.80
2019-05-30T21:33:46.048Z,50.70
2019-05-30T21:36:15.460Z,50.80
2019-05-30T21:38:44.784Z,50.80
2019-05-30T21:41:15.256Z,51.50
2019-05-30T21:43:49.293Z,50.90
2019-05-30T21:46:18.475Z,50.90
2019-05-30T21:48:47.579Z,51.10
2019-05-30T21:51:16.762Z,51.00
2019-05-30T21:53:45.923Z,51.10
2019-05-30T21:56:15.095Z,51.30
2019-05-30T21:58:44.274Z,52.00
2019-05-30T22:01:33.342Z,51.30
2019-05-30T22:04:02.513Z,51.40
2019-05-30T22:06:31.653Z,51.30
2019-05-30T22:09:03.284Z,51.50
2019-05-30T22:11:31.589Z,51.50
2019-05-30T22:14:00.720Z,51.50
2019-05-30T22:16:30.242Z,51.60
2019-05-30T22:18:59.415Z,51.60
2019-05-30T22:21:28.545Z,51.50
2019-05-30T22:23:57.845Z,51.30
2019-05-30T22:26:27.072Z,51.40
2019-05-30T22:28:56.300Z,51.40
2019-05-30T22:31:25.369Z,51.40
2019-05-30T22:33:54.545Z,51.40
2019-05-30T22:36:23.705Z,51.40
2019-05-30T22:38:53.259Z,51.50
2019-05-30T22:41:22.532Z,51.50
2019-05-30T22:43:52.663Z,51.50
2019-05-30T22:46:22.131Z,51.50
2019-05-30T22:48:51.308Z,51.60
2019-05-30T22:51:20.413Z,51.50
2019-05-30T22:53:49.521Z,51.60
2019-05-30T22:56:18.639Z,51.60
2019-05-30T22:58:47.920Z,51.60
2019-05-30T23:01:17.105Z,51.60
2019-05-30T23:03:47.154Z,51.70
2019-05-30T23:06:16.382Z,51.60
2019-05-30T23:08:46.377Z,51.80
2019-05-30T23:11:15.625Z,51.60
2019-05-30T23:13:45.716Z,51.80
2019-05-30T23:16:15.383Z,51.80
2019-05-30T23:18:44.914Z,51.80
2019-05-30T23:21:14.763Z,51.90
2019-05-30T23:23:43.928Z,51.80
2019-05-30T23:26:13.113Z,51.90
2019-05-30T23:28:42.261Z,51.80
2019-05-30T23:31:11.434Z,51.90
2019-05-30T23:33:40.622Z,51.90
2019-05-30T23:36:10.120Z,51.90
2019-05-30T23:38:39.296Z,51.90
2019-05-30T23:41:08.368Z,52.00
2019-05-30T23:43:37.443Z,52.00
2019-05-30T23:46:06.833Z,51.90
2019-05-30T23:48:35.920Z,51.90
2019-05-30T23:51:05.953Z,52.00
2019-05-30T23:53:35.171Z,51.90
2019-05-30T23:56:04.231Z,52.00
2019-05-30T23:58:33.317Z,52.00
